OMD10 LFLC-BIKF
Flight info
| Callsign | OMD10 |
|---|---|
| Flight time | N/A |
| Altitude | 38000 |
| Route | GERVA DCT ARKIP DCT KUNAV/N0450F400 T421 BIG T420 TNT UL28 RODOL UP6 TUPEM DCT FYNER DCT EVBEV DCT BALIX/M077F400 DCT VM DCT ASRUN ASRUN4M |
| Aircraft | E170/M-SDE3GILORVW/S |
Departure
| Time | 2026-04-14 16:07 |
|---|---|
| Airport | Clermont-Ferrand Auvergne airport (LFLC) |
Arrival
| Time | N/A |
|---|---|
| Airport | Keflavik International Airport (BIKF) |
| Time | Latitude | Longitude | Altitude | Speed | Heading |
|---|---|---|---|---|---|
| 2026-04-14 15:57 | 45.78968 | 3.16351 | 1084 ft | 0 kts | 307° |
| 2026-04-14 16:00 | 45.78966 | 3.16354 | 1084 ft | 2 kts | 292° |
| 2026-04-14 16:00 | 45.78957 | 3.16367 | 1083 ft | 3 kts | 313° |
| 2026-04-14 16:00 | 45.78944 | 3.16388 | 1083 ft | 3 kts | 310° |
| 2026-04-14 16:00 | 45.78931 | 3.16411 | 1083 ft | 3 kts | 303° |
| 2026-04-14 16:01 | 45.78922 | 3.16437 | 1082 ft | 3 kts | 284° |
| 2026-04-14 16:01 | 45.78922 | 3.16456 | 1082 ft | 1 kts | 264° |
| 2026-04-14 16:01 | 45.78922 | 3.16462 | 1082 ft | 0 kts | 264° |
| 2026-04-14 16:03 | 45.78922 | 3.16458 | 1082 ft | 2 kts | 264° |
| 2026-04-14 16:03 | 45.78920 | 3.16428 | 1082 ft | 4 kts | 264° |
| 2026-04-14 16:03 | 45.78915 | 3.16369 | 1084 ft | 7 kts | 263° |
| 2026-04-14 16:04 | 45.78906 | 3.16287 | 1085 ft | 9 kts | 259° |
| 2026-04-14 16:04 | 45.78894 | 3.16191 | 1086 ft | 11 kts | 260° |
| 2026-04-14 16:04 | 45.78876 | 3.16090 | 1087 ft | 10 kts | 262° |
| 2026-04-14 16:04 | 45.78865 | 3.15986 | 1089 ft | 11 kts | 263° |
| 2026-04-14 16:05 | 45.78864 | 3.15867 | 1092 ft | 13 kts | 264° |
| 2026-04-14 16:05 | 45.78851 | 3.15730 | 1092 ft | 15 kts | 264° |
| 2026-04-14 16:05 | 45.78835 | 3.15569 | 1093 ft | 18 kts | 260° |
| 2026-04-14 16:05 | 45.78803 | 3.15411 | 1093 ft | 14 kts | 212° |
| 2026-04-14 16:06 | 45.78719 | 3.15383 | 1095 ft | 14 kts | 186° |
| 2026-04-14 16:06 | 45.78623 | 3.15362 | 1094 ft | 15 kts | 192° |
| 2026-04-14 16:06 | 45.78529 | 3.15372 | 1094 ft | 9 kts | 119° |
| 2026-04-14 16:06 | 45.78518 | 3.15458 | 1095 ft | 0 kts | 83° |
| 2026-04-14 16:07 | 45.78528 | 3.15556 | 1095 ft | 37 kts | 81° |
| 2026-04-14 16:07 | 45.78611 | 3.16328 | 1086 ft | 117 kts | 83° |
| 2026-04-14 16:07 | 45.78726 | 3.17641 | 1563 ft | 138 kts | 78° |
| 2026-04-14 16:07 | 45.78921 | 3.19085 | 2092 ft | 163 kts | 66° |
| 2026-04-14 16:08 | 45.79707 | 3.20187 | 2010 ft | 187 kts | 16° |
| 2026-04-14 16:08 | 45.81070 | 3.20064 | 2691 ft | 208 kts | 337° |
| 2026-04-14 16:08 | 45.82169 | 3.18551 | 3391 ft | 243 kts | 301° |
| 2026-04-14 16:08 | 45.82868 | 3.16244 | 4127 ft | 249 kts | 296° |
| 2026-04-14 16:09 | 45.83669 | 3.14083 | 4924 ft | 243 kts | 304° |
| 2026-04-14 16:09 | 45.84635 | 3.12077 | 5687 ft | 246 kts | 310° |
| 2026-04-14 16:09 | 45.85747 | 3.10183 | 6440 ft | 250 kts | 314° |
| 2026-04-14 16:09 | 45.86962 | 3.08384 | 7146 ft | 253 kts | 317° |
| 2026-04-14 16:10 | 45.88237 | 3.06628 | 7861 ft | 256 kts | 319° |
| 2026-04-14 16:10 | 45.89593 | 3.04836 | 8607 ft | 274 kts | 320° |
| 2026-04-14 16:10 | 45.91118 | 3.03044 | 9376 ft | 293 kts | 324° |
| 2026-04-14 16:10 | 45.92793 | 3.01243 | 10182 ft | 310 kts | 325° |
| 2026-04-14 16:11 | 45.94548 | 2.99378 | 10922 ft | 313 kts | 325° |
| 2026-04-14 16:11 | 45.96289 | 2.97526 | 11676 ft | 310 kts | 325° |
| 2026-04-14 16:11 | 45.98016 | 2.95690 | 12433 ft | 306 kts | 325° |
| 2026-04-14 16:11 | 45.99692 | 2.93906 | 13193 ft | 302 kts | 324° |
| 2026-04-14 16:12 | 46.01391 | 2.92095 | 13986 ft | 298 kts | 324° |
| 2026-04-14 16:12 | 46.03050 | 2.90383 | 14677 ft | 292 kts | 329° |
| 2026-04-14 16:12 | 46.04897 | 2.88877 | 15422 ft | 317 kts | 333° |
| 2026-04-14 16:12 | 46.06942 | 2.87413 | 16196 ft | 339 kts | 335° |
| 2026-04-14 16:13 | 46.09140 | 2.85911 | 17006 ft | 359 kts | 335° |
| 2026-04-14 16:13 | 46.11501 | 2.84506 | 17810 ft | 375 kts | 340° |
| 2026-04-14 16:13 | 46.13992 | 2.83184 | 18615 ft | 386 kts | 340° |
| 2026-04-14 16:13 | 46.16518 | 2.81868 | 19329 ft | 387 kts | 341° |
| 2026-04-14 16:14 | 46.19056 | 2.80556 | 20046 ft | 388 kts | 341° |
| 2026-04-14 16:14 | 46.21601 | 2.79237 | 20788 ft | 388 kts | 341° |
| 2026-04-14 16:14 | 46.24137 | 2.77922 | 21548 ft | 387 kts | 341° |
| 2026-04-14 16:14 | 46.26668 | 2.76610 | 22336 ft | 385 kts | 341° |
| 2026-04-14 16:15 | 46.29180 | 2.75305 | 23116 ft | 382 kts | 341° |
| 2026-04-14 16:15 | 46.31651 | 2.74020 | 23804 ft | 381 kts | 341° |
| 2026-04-14 16:15 | 46.34143 | 2.72721 | 24378 ft | 380 kts | 341° |
| 2026-04-14 16:15 | 46.36632 | 2.71424 | 24970 ft | 378 kts | 341° |
| 2026-04-14 16:16 | 46.39099 | 2.70137 | 25572 ft | 376 kts | 341° |
| 2026-04-14 16:16 | 46.41545 | 2.68858 | 26183 ft | 373 kts | 340° |
| 2026-04-14 16:16 | 46.43972 | 2.67589 | 26805 ft | 369 kts | 340° |
| 2026-04-14 16:16 | 46.46378 | 2.66330 | 27451 ft | 365 kts | 340° |
| 2026-04-14 16:17 | 46.48755 | 2.65084 | 28095 ft | 364 kts | 340° |
| 2026-04-14 16:17 | 46.51149 | 2.63828 | 28778 ft | 366 kts | 340° |
| 2026-04-14 16:17 | 46.53560 | 2.62562 | 29486 ft | 368 kts | 340° |
| 2026-04-14 16:17 | 46.55968 | 2.61298 | 30192 ft | 369 kts | 340° |
| 2026-04-14 16:18 | 46.58383 | 2.60026 | 30806 ft | 369 kts | 340° |
| 2026-04-14 16:18 | 46.60760 | 2.58774 | 31410 ft | 368 kts | 340° |
| 2026-04-14 16:18 | 46.63164 | 2.57508 | 32033 ft | 366 kts | 340° |
| 2026-04-14 16:18 | 46.65553 | 2.56249 | 32690 ft | 364 kts | 341° |
| 2026-04-14 16:19 | 46.67926 | 2.54996 | 33336 ft | 362 kts | 341° |
| 2026-04-14 16:19 | 46.70282 | 2.53751 | 34010 ft | 358 kts | 341° |
| 2026-04-14 16:19 | 46.72611 | 2.52522 | 34617 ft | 354 kts | 341° |
| 2026-04-14 16:19 | 46.74911 | 2.51305 | 35210 ft | 350 kts | 341° |
| 2026-04-14 16:20 | 46.77186 | 2.50101 | 35760 ft | 347 kts | 341° |
| 2026-04-14 16:20 | 46.79458 | 2.48895 | 36252 ft | 346 kts | 341° |
| 2026-04-14 16:20 | 46.81720 | 2.47693 | 36747 ft | 345 kts | 341° |
| 2026-04-14 16:20 | 46.83964 | 2.46502 | 37267 ft | 343 kts | 341° |
| 2026-04-14 16:21 | 46.86199 | 2.45312 | 37790 ft | 340 kts | 340° |
| 2026-04-14 16:21 | 46.88431 | 2.44125 | 38079 ft | 345 kts | 340° |
| 2026-04-14 16:21 | 46.90717 | 2.42907 | 38148 ft | 352 kts | 340° |
| 2026-04-14 16:21 | 46.92966 | 2.41707 | 38159 ft | 338 kts | 340° |
| 2026-04-14 16:22 | 46.95138 | 2.40548 | 38160 ft | 334 kts | 340° |
| 2026-04-14 16:22 | 46.99487 | 2.38224 | 38181 ft | 331 kts | 340° |
| 2026-04-14 16:23 | 47.03790 | 2.35922 | 38176 ft | 329 kts | 340° |
| 2026-04-14 16:23 | 47.08077 | 2.33623 | 38188 ft | 326 kts | 340° |
| 2026-04-14 16:24 | 47.12330 | 2.31339 | 38170 ft | 324 kts | 340° |
| 2026-04-14 16:24 | 47.16525 | 2.29083 | 38188 ft | 322 kts | 340° |
| 2026-04-14 16:25 | 47.20726 | 2.26818 | 38167 ft | 321 kts | 340° |
| 2026-04-14 16:25 | 47.24901 | 2.24565 | 38187 ft | 319 kts | 340° |
| 2026-04-14 16:26 | 47.29061 | 2.22316 | 38166 ft | 318 kts | 340° |
| 2026-04-14 16:26 | 47.33198 | 2.20075 | 38195 ft | 316 kts | 339° |
| 2026-04-14 16:27 | 47.37325 | 2.17836 | 38169 ft | 315 kts | 339° |
| 2026-04-14 16:27 | 47.41432 | 2.15603 | 38175 ft | 314 kts | 339° |
| 2026-04-14 16:28 | 47.45526 | 2.13376 | 38175 ft | 313 kts | 339° |
| 2026-04-14 16:28 | 47.49581 | 2.11164 | 38178 ft | 312 kts | 339° |
| 2026-04-14 16:29 | 47.53651 | 2.08942 | 38169 ft | 311 kts | 339° |
| 2026-04-14 16:29 | 47.57703 | 2.06725 | 38179 ft | 310 kts | 339° |
| 2026-04-14 16:30 | 47.61773 | 2.04618 | 38171 ft | 310 kts | 341° |
| 2026-04-14 16:30 | 47.65907 | 2.02845 | 38182 ft | 309 kts | 346° |
| 2026-04-14 16:31 | 47.70109 | 2.01479 | 38175 ft | 309 kts | 346° |
| 2026-04-14 16:31 | 47.74284 | 2.00151 | 38191 ft | 308 kts | 346° |
| 2026-04-14 16:32 | 47.78480 | 1.98813 | 38175 ft | 308 kts | 346° |
| 2026-04-14 16:32 | 47.82673 | 1.97473 | 38190 ft | 307 kts | 346° |
| 2026-04-14 16:33 | 47.86858 | 1.96133 | 38177 ft | 308 kts | 346° |
| 2026-04-14 16:33 | 47.91037 | 1.94792 | 38188 ft | 307 kts | 346° |
| 2026-04-14 16:34 | 47.95208 | 1.93452 | 38178 ft | 306 kts | 346° |
| 2026-04-14 16:34 | 47.99372 | 1.92112 | 38189 ft | 305 kts | 346° |
| 2026-04-14 16:35 | 48.03520 | 1.90774 | 38176 ft | 305 kts | 346° |
| 2026-04-14 16:35 | 48.07660 | 1.89438 | 38189 ft | 304 kts | 345° |
| 2026-04-14 16:36 | 48.11804 | 1.88098 | 38178 ft | 304 kts | 345° |
| 2026-04-14 16:36 | 48.15895 | 1.86771 | 38187 ft | 303 kts | 345° |
| 2026-04-14 16:37 | 48.20010 | 1.85437 | 38171 ft | 302 kts | 345° |
| 2026-04-14 16:37 | 48.24121 | 1.84100 | 38186 ft | 301 kts | 345° |
| 2026-04-14 16:38 | 48.28221 | 1.82765 | 38174 ft | 301 kts | 345° |
| 2026-04-14 16:38 | 48.30267 | 1.82098 | 38183 ft | 300 kts | 345° |
| 2026-04-14 16:38 | 48.32316 | 1.81430 | 38184 ft | 300 kts | 345° |
| 2026-04-14 16:38 | 48.34358 | 1.80763 | 38182 ft | 300 kts | 345° |
| 2026-04-14 16:39 | 48.36370 | 1.80105 | 38172 ft | 300 kts | 345° |
| 2026-04-14 16:39 | 48.38406 | 1.79440 | 38177 ft | 299 kts | 345° |
| 2026-04-14 16:39 | 48.40442 | 1.78773 | 38194 ft | 303 kts | 345° |
| 2026-04-14 16:39 | 48.42545 | 1.78083 | 38220 ft | 314 kts | 345° |
| 2026-04-14 16:40 | 48.44718 | 1.77370 | 38229 ft | 324 kts | 345° |
| 2026-04-14 16:40 | 48.46956 | 1.76637 | 38243 ft | 335 kts | 345° |
| 2026-04-14 16:40 | 48.49268 | 1.75877 | 38247 ft | 345 kts | 345° |
| 2026-04-14 16:40 | 48.51664 | 1.75090 | 38250 ft | 356 kts | 345° |
| 2026-04-14 16:41 | 48.54119 | 1.74282 | 38250 ft | 367 kts | 345° |
| 2026-04-14 16:41 | 48.59250 | 1.72591 | 38235 ft | 388 kts | 345° |
| 2026-04-14 16:42 | 48.64653 | 1.70806 | 38225 ft | 407 kts | 345° |
| 2026-04-14 16:42 | 48.69293 | 1.69272 | 38194 ft | 411 kts | 345° |
| 2026-04-14 16:43 | 48.75752 | 1.67128 | 38173 ft | 407 kts | 345° |
| 2026-04-14 16:43 | 48.80365 | 1.65595 | 38180 ft | 403 kts | 345° |
| 2026-04-14 16:44 | 48.85838 | 1.63769 | 38174 ft | 402 kts | 345° |
| 2026-04-14 16:44 | 48.91271 | 1.61956 | 38188 ft | 402 kts | 345° |
| 2026-04-14 16:45 | 48.99466 | 1.59212 | 38176 ft | 401 kts | 345° |
| 2026-04-14 16:45 | 49.04951 | 1.57369 | 38197 ft | 406 kts | 345° |
| 2026-04-14 16:46 | 49.10503 | 1.55502 | 38171 ft | 410 kts | 345° |
| 2026-04-14 16:46 | 49.16099 | 1.53614 | 38190 ft | 414 kts | 345° |
| 2026-04-14 16:47 | 49.21749 | 1.51704 | 38178 ft | 417 kts | 345° |
| 2026-04-14 16:47 | 49.27440 | 1.49775 | 38170 ft | 420 kts | 345° |
| 2026-04-14 16:48 | 49.33172 | 1.47828 | 38170 ft | 423 kts | 345° |
| 2026-04-14 16:48 | 49.38893 | 1.45880 | 38167 ft | 426 kts | 345° |
| 2026-04-14 16:49 | 49.44703 | 1.43896 | 38160 ft | 428 kts | 345° |
| 2026-04-14 16:49 | 49.50531 | 1.41902 | 38170 ft | 430 kts | 344° |
| 2026-04-14 16:50 | 49.56386 | 1.39894 | 38160 ft | 432 kts | 344° |
| 2026-04-14 16:50 | 49.62263 | 1.37872 | 38169 ft | 434 kts | 344° |
| 2026-04-14 16:51 | 49.68132 | 1.35849 | 38158 ft | 435 kts | 344° |
| 2026-04-14 16:51 | 49.74053 | 1.33804 | 38173 ft | 436 kts | 344° |
| 2026-04-14 16:52 | 49.79953 | 1.31761 | 38154 ft | 432 kts | 344° |
| 2026-04-14 16:52 | 49.85784 | 1.29735 | 38162 ft | 427 kts | 344° |
| 2026-04-14 16:53 | 49.91557 | 1.27724 | 38146 ft | 423 kts | 344° |
| 2026-04-14 16:53 | 49.97276 | 1.25728 | 38164 ft | 420 kts | 344° |
| 2026-04-14 16:54 | 50.02960 | 1.23739 | 38154 ft | 417 kts | 344° |
| 2026-04-14 16:54 | 50.08605 | 1.21759 | 38160 ft | 414 kts | 344° |
| 2026-04-14 16:55 | 50.14218 | 1.19786 | 38151 ft | 412 kts | 343° |
| 2026-04-14 16:55 | 50.19800 | 1.17819 | 38159 ft | 410 kts | 343° |
| 2026-04-14 16:56 | 50.25401 | 1.15839 | 38164 ft | 417 kts | 343° |
| 2026-04-14 16:56 | 50.31133 | 1.13810 | 38167 ft | 428 kts | 343° |
| 2026-04-14 16:57 | 50.36963 | 1.11741 | 38156 ft | 437 kts | 344° |
| 2026-04-14 16:57 | 50.42956 | 1.09609 | 38162 ft | 445 kts | 344° |
| 2026-04-14 16:58 | 50.49025 | 1.07308 | 38144 ft | 450 kts | 338° |
| 2026-04-14 16:58 | 50.54543 | 1.02771 | 38166 ft | 448 kts | 320° |
| 2026-04-14 16:59 | 50.59479 | 0.96688 | 38151 ft | 453 kts | 319° |
| 2026-04-14 16:59 | 50.64349 | 0.90642 | 38135 ft | 427 kts | 319° |
| 2026-04-14 17:00 | 50.66616 | 0.87818 | 38117 ft | 407 kts | 319° |
| 2026-04-14 17:00 | 50.68805 | 0.85088 | 38114 ft | 400 kts | 319° |
| 2026-04-14 17:00 | 50.73238 | 0.79552 | 38161 ft | 407 kts | 319° |
| 2026-04-14 17:01 | 50.77623 | 0.74066 | 38158 ft | 408 kts | 319° |
| 2026-04-14 17:01 | 50.82080 | 0.68477 | 38144 ft | 407 kts | 319° |
| 2026-04-14 17:02 | 50.86514 | 0.62902 | 38157 ft | 408 kts | 319° |
| 2026-04-14 17:02 | 50.90946 | 0.57317 | 38140 ft | 406 kts | 319° |
| 2026-04-14 17:03 | 50.95356 | 0.51743 | 38037 ft | 406 kts | 319° |
| 2026-04-14 17:03 | 50.99772 | 0.46148 | 37979 ft | 405 kts | 318° |
| 2026-04-14 17:04 | 51.04179 | 0.40550 | 37961 ft | 406 kts | 318° |
| 2026-04-14 17:04 | 51.08579 | 0.34948 | 37908 ft | 403 kts | 318° |
| 2026-04-14 17:05 | 51.12966 | 0.29347 | 37924 ft | 404 kts | 318° |
| 2026-04-14 17:05 | 51.17350 | 0.23738 | 37924 ft | 403 kts | 318° |
| 2026-04-14 17:06 | 51.21718 | 0.18134 | 38132 ft | 403 kts | 318° |
| 2026-04-14 17:06 | 51.26067 | 0.12541 | 38125 ft | 402 kts | 318° |
| 2026-04-14 17:07 | 51.30287 | 0.07113 | 38132 ft | 401 kts | 319° |
| 2026-04-14 17:07 | 51.34820 | 0.01908 | 38123 ft | 402 kts | 325° |
| 2026-04-14 17:08 | 51.39594 | -0.02685 | 38135 ft | 403 kts | 326° |
| 2026-04-14 17:08 | 51.44417 | -0.07260 | 38115 ft | 402 kts | 326° |
| 2026-04-14 17:09 | 51.49236 | -0.11845 | 38138 ft | 402 kts | 326° |
| 2026-04-14 17:09 | 51.54038 | -0.16425 | 38110 ft | 400 kts | 326° |
| 2026-04-14 17:10 | 51.58827 | -0.21006 | 38057 ft | 401 kts | 326° |
| 2026-04-14 17:10 | 51.63626 | -0.25604 | 38048 ft | 400 kts | 326° |
| 2026-04-14 17:11 | 51.68375 | -0.30173 | 38053 ft | 401 kts | 325° |
| 2026-04-14 17:11 | 51.73168 | -0.34793 | 38034 ft | 400 kts | 325° |
| 2026-04-14 17:12 | 51.77946 | -0.39412 | 38111 ft | 400 kts | 325° |
| 2026-04-14 17:12 | 51.82725 | -0.44041 | 38095 ft | 399 kts | 325° |
| 2026-04-14 17:13 | 51.87486 | -0.48665 | 38105 ft | 399 kts | 325° |
| 2026-04-14 17:13 | 51.92248 | -0.53301 | 38102 ft | 398 kts | 325° |
| 2026-04-14 17:14 | 51.96999 | -0.57938 | 38063 ft | 399 kts | 325° |
| 2026-04-14 17:14 | 52.01749 | -0.62583 | 38073 ft | 398 kts | 325° |
| 2026-04-14 17:15 | 52.06491 | -0.67236 | 38080 ft | 398 kts | 324° |
| 2026-04-14 17:15 | 52.11197 | -0.71861 | 38076 ft | 397 kts | 324° |
| 2026-04-14 17:16 | 52.15927 | -0.76526 | 38072 ft | 398 kts | 324° |
| 2026-04-14 17:16 | 52.20654 | -0.81195 | 38067 ft | 397 kts | 324° |
| 2026-04-14 17:17 | 52.25377 | -0.85877 | 38064 ft | 397 kts | 324° |
| 2026-04-14 17:17 | 52.30092 | -0.90559 | 38051 ft | 396 kts | 324° |
| 2026-04-14 17:18 | 52.34796 | -0.95243 | 38065 ft | 397 kts | 324° |
| 2026-04-14 17:18 | 52.39516 | -0.99955 | 38056 ft | 395 kts | 324° |
| 2026-04-14 17:19 | 52.44218 | -1.04661 | 38031 ft | 396 kts | 324° |
| 2026-04-14 17:19 | 52.48888 | -1.09346 | 38013 ft | 395 kts | 324° |
| 2026-04-14 17:20 | 52.53576 | -1.14064 | 37998 ft | 395 kts | 324° |
| 2026-04-14 17:20 | 52.58259 | -1.18782 | 37976 ft | 394 kts | 323° |
| 2026-04-14 17:21 | 52.62933 | -1.23505 | 37971 ft | 394 kts | 323° |
| 2026-04-14 17:21 | 52.67617 | -1.28242 | 37960 ft | 393 kts | 323° |
| 2026-04-14 17:22 | 52.72276 | -1.32981 | 37977 ft | 394 kts | 323° |
| 2026-04-14 17:22 | 52.76933 | -1.37727 | 38038 ft | 392 kts | 323° |
| 2026-04-14 17:23 | 52.81555 | -1.42450 | 38056 ft | 393 kts | 323° |
| 2026-04-14 17:23 | 52.86202 | -1.47208 | 38040 ft | 392 kts | 323° |
| 2026-04-14 17:24 | 52.90839 | -1.51971 | 38047 ft | 392 kts | 323° |
| 2026-04-14 17:24 | 52.95466 | -1.56733 | 38038 ft | 391 kts | 323° |
| 2026-04-14 17:25 | 53.00102 | -1.61519 | 38037 ft | 391 kts | 323° |
| 2026-04-14 17:25 | 53.04696 | -1.66271 | 38024 ft | 390 kts | 323° |
| 2026-04-14 17:26 | 53.09303 | -1.71056 | 38027 ft | 391 kts | 323° |
| 2026-04-14 17:26 | 53.13910 | -1.75851 | 38020 ft | 390 kts | 322° |
| 2026-04-14 17:27 | 53.18518 | -1.80661 | 38018 ft | 390 kts | 322° |
| 2026-04-14 17:27 | 53.22811 | -1.86052 | 38013 ft | 381 kts | 309° |
| 2026-04-14 17:28 | 53.26211 | -1.92812 | 38017 ft | 379 kts | 303° |
| 2026-04-14 17:28 | 53.29062 | -1.99970 | 38000 ft | 376 kts | 299° |
| 2026-04-14 17:29 | 53.31910 | -2.07466 | 38033 ft | 377 kts | 299° |
| 2026-04-14 17:29 | 53.34712 | -2.14870 | 38017 ft | 376 kts | 299° |
| 2026-04-14 17:30 | 53.37050 | -2.21065 | 38023 ft | 376 kts | 299° |
| 2026-04-14 17:30 | 53.39837 | -2.28466 | 38010 ft | 375 kts | 299° |
| 2026-04-14 17:31 | 53.42614 | -2.35864 | 38024 ft | 375 kts | 298° |
| 2026-04-14 17:31 | 53.45371 | -2.43225 | 38004 ft | 374 kts | 298° |
| 2026-04-14 17:32 | 53.48137 | -2.50638 | 38017 ft | 375 kts | 298° |
| 2026-04-14 17:32 | 53.50900 | -2.58059 | 37979 ft | 373 kts | 298° |
| 2026-04-14 17:33 | 53.53652 | -2.65476 | 37989 ft | 374 kts | 298° |
| 2026-04-14 17:34 | 53.57824 | -2.76547 | 37962 ft | 376 kts | 304° |
| 2026-04-14 17:34 | 53.61813 | -2.82329 | 37973 ft | 389 kts | 322° |
| 2026-04-14 17:35 | 53.66524 | -2.86873 | 37984 ft | 390 kts | 324° |
| 2026-04-14 17:35 | 53.71285 | -2.91292 | 37563 ft | 388 kts | 320° |
| 2026-04-14 17:35 | 53.73490 | -2.93660 | 37661 ft | 364 kts | 318° |
| 2026-04-14 17:36 | 53.74775 | -2.95087 | 37727 ft | 358 kts | 318° |
| 2026-04-14 17:36 | 53.78219 | -2.98986 | 37872 ft | 367 kts | 318° |
| 2026-04-14 17:37 | 53.82274 | -3.03578 | 37949 ft | 369 kts | 317° |
| 2026-04-14 17:37 | 53.86452 | -3.08325 | 37973 ft | 372 kts | 317° |
| 2026-04-14 17:38 | 53.90757 | -3.13225 | 37961 ft | 372 kts | 317° |
| 2026-04-14 17:38 | 53.95022 | -3.18092 | 37959 ft | 372 kts | 317° |
| 2026-04-14 17:39 | 53.99323 | -3.23011 | 37958 ft | 372 kts | 317° |
| 2026-04-14 17:39 | 54.03624 | -3.27944 | 37951 ft | 373 kts | 317° |
| 2026-04-14 17:40 | 54.07935 | -3.32900 | 37949 ft | 373 kts | 317° |
| 2026-04-14 17:40 | 54.12242 | -3.37864 | 37939 ft | 374 kts | 317° |
| 2026-04-14 17:41 | 54.16552 | -3.42843 | 37949 ft | 374 kts | 317° |
| 2026-04-14 17:41 | 54.20866 | -3.47841 | 37940 ft | 374 kts | 317° |
| 2026-04-14 17:42 | 54.25154 | -3.52821 | 37939 ft | 375 kts | 317° |
| 2026-04-14 17:42 | 54.29475 | -3.57853 | 37933 ft | 375 kts | 317° |
| 2026-04-14 17:43 | 54.33787 | -3.62887 | 37936 ft | 375 kts | 317° |
| 2026-04-14 17:43 | 54.38112 | -3.67949 | 37939 ft | 376 kts | 317° |
| 2026-04-14 17:44 | 54.42439 | -3.73026 | 37931 ft | 377 kts | 316° |
| 2026-04-14 17:44 | 54.46772 | -3.78125 | 37912 ft | 377 kts | 316° |
| 2026-04-14 17:45 | 54.51114 | -3.83247 | 37920 ft | 378 kts | 316° |
| 2026-04-14 17:45 | 54.55427 | -3.88348 | 37918 ft | 379 kts | 316° |
| 2026-04-14 17:46 | 54.59775 | -3.93504 | 37919 ft | 379 kts | 316° |
| 2026-04-14 17:46 | 54.64133 | -3.98685 | 37923 ft | 380 kts | 316° |
| 2026-04-14 17:47 | 54.68493 | -4.03883 | 37925 ft | 381 kts | 316° |
| 2026-04-14 17:47 | 54.72858 | -4.09100 | 37917 ft | 381 kts | 316° |
| 2026-04-14 17:48 | 54.77226 | -4.14335 | 37919 ft | 382 kts | 316° |
| 2026-04-14 17:48 | 54.81602 | -4.19595 | 37919 ft | 383 kts | 316° |
| 2026-04-14 17:49 | 54.85982 | -4.24872 | 37914 ft | 383 kts | 316° |
| 2026-04-14 17:49 | 54.90356 | -4.30156 | 37924 ft | 384 kts | 316° |
| 2026-04-14 17:50 | 54.94744 | -4.35473 | 37909 ft | 385 kts | 316° |
| 2026-04-14 17:50 | 54.99139 | -4.40813 | 37916 ft | 385 kts | 316° |
| 2026-04-14 17:51 | 55.03542 | -4.46174 | 37892 ft | 386 kts | 316° |
| 2026-04-14 17:51 | 55.07947 | -4.51555 | 37922 ft | 387 kts | 316° |
| 2026-04-14 17:52 | 55.12327 | -4.56920 | 37898 ft | 387 kts | 316° |
| 2026-04-14 17:52 | 55.16735 | -4.62333 | 37889 ft | 387 kts | 316° |
| 2026-04-14 17:53 | 55.21147 | -4.67768 | 37906 ft | 388 kts | 316° |
| 2026-04-14 17:53 | 55.25565 | -4.73223 | 37882 ft | 388 kts | 316° |
| 2026-04-14 17:54 | 55.29981 | -4.78691 | 37883 ft | 388 kts | 316° |
| 2026-04-14 17:54 | 55.34394 | -4.84171 | 37877 ft | 389 kts | 316° |
| 2026-04-14 17:55 | 55.38782 | -4.89636 | 37884 ft | 389 kts | 316° |
| 2026-04-14 17:55 | 55.43207 | -4.95162 | 37879 ft | 390 kts | 316° |
| 2026-04-14 17:56 | 55.47631 | -5.00702 | 37878 ft | 391 kts | 316° |
| 2026-04-14 17:56 | 55.52062 | -5.06266 | 37882 ft | 391 kts | 316° |
| 2026-04-14 17:57 | 55.56505 | -5.11861 | 37877 ft | 392 kts | 316° |
| 2026-04-14 17:57 | 55.60957 | -5.17483 | 37868 ft | 393 kts | 316° |
| 2026-04-14 17:58 | 55.65417 | -5.23132 | 37850 ft | 394 kts | 316° |
| 2026-04-14 17:58 | 55.69878 | -5.28801 | 37854 ft | 395 kts | 316° |
| 2026-04-14 17:59 | 55.74354 | -5.34501 | 37869 ft | 396 kts | 316° |
| 2026-04-14 17:59 | 55.78809 | -5.40192 | 37860 ft | 397 kts | 316° |
| 2026-04-14 18:00 | 55.83320 | -5.45971 | 37859 ft | 398 kts | 316° |
| 2026-04-14 18:00 | 55.90027 | -5.54596 | 37852 ft | 399 kts | 316° |
| 2026-04-14 18:01 | 55.94526 | -5.60401 | 37844 ft | 399 kts | 316° |
| 2026-04-14 18:01 | 55.99022 | -5.66222 | 37850 ft | 399 kts | 316° |
| 2026-04-14 18:02 | 56.03522 | -5.72063 | 37825 ft | 400 kts | 316° |
| 2026-04-14 18:02 | 56.08022 | -5.77922 | 37838 ft | 400 kts | 316° |
| 2026-04-14 18:03 | 56.12523 | -5.83800 | 37827 ft | 400 kts | 316° |
| 2026-04-14 18:03 | 56.17024 | -5.89695 | 37830 ft | 401 kts | 316° |
| 2026-04-14 18:04 | 56.21520 | -5.95600 | 37820 ft | 400 kts | 316° |
| 2026-04-14 18:04 | 56.26015 | -6.01523 | 37826 ft | 401 kts | 316° |
| 2026-04-14 18:05 | 56.30512 | -6.07465 | 37830 ft | 400 kts | 316° |
| 2026-04-14 18:05 | 56.34972 | -6.13376 | 37812 ft | 401 kts | 316° |
| 2026-04-14 18:06 | 56.39470 | -6.19355 | 37817 ft | 402 kts | 316° |
| 2026-04-14 18:06 | 56.43966 | -6.25350 | 37813 ft | 401 kts | 316° |
| 2026-04-14 18:07 | 56.48461 | -6.31361 | 37798 ft | 401 kts | 316° |
| 2026-04-14 18:07 | 56.52945 | -6.37375 | 37808 ft | 401 kts | 316° |
| 2026-04-14 18:08 | 56.57423 | -6.43402 | 37794 ft | 401 kts | 316° |
| 2026-04-14 18:08 | 56.61903 | -6.49448 | 37806 ft | 401 kts | 316° |
| 2026-04-14 18:09 | 56.66376 | -6.55502 | 37789 ft | 401 kts | 316° |
| 2026-04-14 18:09 | 56.70846 | -6.61571 | 37792 ft | 401 kts | 316° |
| 2026-04-14 18:10 | 56.75287 | -6.67620 | 37784 ft | 401 kts | 316° |
| 2026-04-14 18:10 | 56.79755 | -6.73723 | 37791 ft | 402 kts | 316° |
| 2026-04-14 18:11 | 56.84226 | -6.79848 | 37787 ft | 402 kts | 316° |
| 2026-04-14 18:11 | 56.88691 | -6.85985 | 37785 ft | 402 kts | 316° |
| 2026-04-14 18:12 | 56.93164 | -6.92151 | 37778 ft | 402 kts | 316° |
| 2026-04-14 18:12 | 56.97631 | -6.98328 | 37776 ft | 402 kts | 316° |
| 2026-04-14 18:13 | 57.01344 | -7.03477 | 37776 ft | 402 kts | 315° |
| 2026-04-14 18:13 | 57.06532 | -7.10694 | 37774 ft | 402 kts | 315° |
| 2026-04-14 18:14 | 57.10992 | -7.16917 | 37769 ft | 402 kts | 315° |
| 2026-04-14 18:14 | 57.14724 | -7.22141 | 37772 ft | 402 kts | 315° |
| 2026-04-14 18:15 | 57.19176 | -7.28391 | 37776 ft | 403 kts | 315° |
| 2026-04-14 18:15 | 57.23637 | -7.34672 | 37787 ft | 403 kts | 315° |
| 2026-04-14 18:16 | 57.28090 | -7.40961 | 37790 ft | 403 kts | 315° |
| 2026-04-14 18:16 | 57.32538 | -7.47264 | 37792 ft | 403 kts | 315° |
| 2026-04-14 18:17 | 57.36996 | -7.53600 | 37798 ft | 404 kts | 315° |
| 2026-04-14 18:17 | 57.41458 | -7.59961 | 37797 ft | 404 kts | 315° |
| 2026-04-14 18:18 | 57.45889 | -7.66299 | 37789 ft | 405 kts | 315° |
| 2026-04-14 18:18 | 57.50355 | -7.72707 | 37783 ft | 406 kts | 315° |
| 2026-04-14 18:19 | 57.54822 | -7.79137 | 37777 ft | 406 kts | 315° |
| 2026-04-14 18:19 | 57.59292 | -7.85591 | 37767 ft | 407 kts | 315° |
| 2026-04-14 18:20 | 57.63771 | -7.92079 | 37748 ft | 407 kts | 314° |